createdAt,value
2018-08-06T00:00:33.196Z,21.08
2018-08-06T00:03:03.244Z,21.06
2018-08-06T00:05:33.299Z,21.04
2018-08-06T00:08:03.387Z,21.02
2018-08-06T00:10:33.538Z,20.99
2018-08-06T00:13:04.281Z,20.95
2018-08-06T00:15:34.408Z,20.95
2018-08-06T00:18:04.476Z,20.94
2018-08-06T00:20:34.593Z,20.92
2018-08-06T00:23:04.448Z,20.89
2018-08-06T00:25:34.413Z,20.84
2018-08-06T00:28:10.482Z,20.83
2018-08-06T00:30:40.440Z,20.80
2018-08-06T00:33:10.513Z,20.79
2018-08-06T00:35:40.538Z,20.78
2018-08-06T00:38:10.555Z,20.75
2018-08-06T00:40:40.612Z,20.73
2018-08-06T00:43:10.510Z,20.73
2018-08-06T00:45:40.864Z,20.75
2018-08-06T00:48:10.926Z,20.73
2018-08-06T00:50:40.842Z,20.79
2018-08-06T00:53:11.076Z,20.74
2018-08-06T00:55:41.298Z,20.72
2018-08-06T00:58:11.209Z,20.67
2018-08-06T01:00:41.220Z,20.67
2018-08-06T01:03:11.184Z,20.63
2018-08-06T01:05:41.264Z,20.59
2018-08-06T01:08:11.850Z,20.61
2018-08-06T01:10:41.816Z,20.60
2018-08-06T01:13:13.365Z,20.56
2018-08-06T01:15:44.708Z,20.53
2018-08-06T01:18:14.723Z,20.53
2018-08-06T01:20:46.225Z,20.52
2018-08-06T01:23:17.444Z,20.49
2018-08-06T01:25:48.916Z,20.49
2018-08-06T01:28:20.041Z,20.48
2018-08-06T01:30:50.485Z,20.51
2018-08-06T01:33:22.146Z,20.48
2018-08-06T01:35:54.058Z,20.46
2018-08-06T01:38:24.004Z,20.45
2018-08-06T01:40:54.044Z,20.43
2018-08-06T01:43:24.124Z,20.43
2018-08-06T01:45:54.228Z,20.40
2018-08-06T01:48:24.580Z,20.33
2018-08-06T01:50:55.625Z,20.29
2018-08-06T01:53:26.676Z,20.27
2018-08-06T01:55:56.780Z,20.27
2018-08-06T01:58:26.888Z,20.23
2018-08-06T02:00:57.381Z,20.19
2018-08-06T02:03:27.549Z,20.12
2018-08-06T02:05:59.060Z,20.13
2018-08-06T02:08:29.059Z,20.10
2018-08-06T02:10:59.132Z,20.08
2018-08-06T02:13:29.317Z,20.02
2018-08-06T02:16:00.616Z,20.04
2018-08-06T02:18:30.837Z,20.01
2018-08-06T02:21:01.890Z,20.00
2018-08-06T02:23:31.994Z,20.02
2018-08-06T02:26:02.019Z,19.99
2018-08-06T02:28:33.575Z,20.02
2018-08-06T02:31:03.773Z,20.02
2018-08-06T02:33:33.695Z,19.99
2018-08-06T02:36:05.276Z,19.97
2018-08-06T02:38:35.325Z,19.98
2018-08-06T02:41:05.307Z,19.97
2018-08-06T02:43:35.310Z,19.93
2018-08-06T02:46:05.417Z,19.94
2018-08-06T02:48:35.441Z,19.94
2018-08-06T02:51:05.530Z,19.95
2018-08-06T02:53:35.961Z,19.97
2018-08-06T02:56:06.271Z,19.96
2018-08-06T02:58:36.221Z,19.93
2018-08-06T03:01:06.296Z,19.91
2018-08-06T03:03:36.289Z,19.90
2018-08-06T03:06:07.245Z,19.87
2018-08-06T03:08:38.797Z,19.83
2018-08-06T03:11:08.783Z,19.82
2018-08-06T03:13:38.796Z,19.81
2018-08-06T03:16:08.872Z,19.79
2018-08-06T03:18:39.036Z,19.75
2018-08-06T03:21:09.113Z,19.75
2018-08-06T03:23:40.720Z,19.71
2018-08-06T03:26:13.178Z,19.71
2018-08-06T03:28:43.357Z,19.70
2018-08-06T03:31:15.656Z,19.72
2018-08-06T03:33:48.015Z,19.71
2018-08-06T03:36:18.435Z,19.70
2018-08-06T03:38:50.779Z,19.68
2018-08-06T03:41:22.855Z,19.65
2018-08-06T03:43:53.272Z,19.62
2018-08-06T03:46:23.474Z,19.58
2018-08-06T03:48:53.590Z,19.54
2018-08-06T03:51:23.592Z,19.55
2018-08-06T03:53:54.200Z,19.53
2018-08-06T03:56:24.584Z,19.52
2018-08-06T03:58:56.486Z,19.58
2018-08-06T04:01:27.935Z,19.57
2018-08-06T04:03:58.929Z,19.54
2018-08-06T04:06:29.047Z,19.53
2018-08-06T04:09:01.246Z,19.55
2018-08-06T04:11:31.992Z,19.52
2018-08-06T04:14:02.640Z,19.51
2018-08-06T04:16:39.574Z,19.50
2018-08-06T04:19:10.469Z,19.51
2018-08-06T04:21:41.701Z,19.50
2018-08-06T04:24:13.185Z,19.51
2018-08-06T04:26:45.010Z,19.52
2018-08-06T04:29:17.049Z,19.58
2018-08-06T04:31:47.018Z,19.54
2018-08-06T04:34:18.488Z,19.57
2018-08-06T04:36:49.013Z,19.62
2018-08-06T04:39:18.929Z,19.63
2018-08-06T04:41:48.849Z,19.62
2018-08-06T04:44:18.865Z,19.65
2018-08-06T04:46:50.315Z,19.61
2018-08-06T04:49:20.390Z,19.63
2018-08-06T04:51:50.052Z,19.65
2018-08-06T04:54:20.118Z,19.69
2018-08-06T04:56:50.153Z,19.75
2018-08-06T04:59:20.316Z,19.76
2018-08-06T05:01:50.320Z,19.78
2018-08-06T05:04:20.400Z,19.84
2018-08-06T05:06:51.111Z,19.91
2018-08-06T05:09:24.145Z,20.02
2018-08-06T05:11:54.136Z,20.06
2018-08-06T05:14:24.151Z,20.15
2018-08-06T05:16:56.500Z,20.25
2018-08-06T05:19:26.631Z,20.30
2018-08-06T05:21:57.918Z,20.35
2018-08-06T05:24:28.249Z,20.48
2018-08-06T05:26:58.593Z,20.59
2018-08-06T05:29:28.634Z,20.69
2018-08-06T05:31:58.802Z,20.81
2018-08-06T05:34:28.776Z,20.89
2018-08-06T05:36:58.821Z,21.00
2018-08-06T05:39:28.892Z,21.06
2018-08-06T05:41:58.929Z,21.15
2018-08-06T05:44:29.139Z,21.27
2018-08-06T05:46:59.189Z,21.40
2018-08-06T05:49:29.332Z,21.52
2018-08-06T05:51:59.328Z,21.65
2018-08-06T05:54:29.473Z,21.77
2018-08-06T05:56:59.544Z,21.91
2018-08-06T05:59:29.650Z,22.02
2018-08-06T06:01:59.715Z,22.13
2018-08-06T06:04:29.798Z,22.30
2018-08-06T06:06:59.916Z,22.44
2018-08-06T06:09:29.930Z,22.56
2018-08-06T06:12:00.103Z,22.63
2018-08-06T06:14:30.075Z,22.67
2018-08-06T06:17:00.237Z,22.76
2018-08-06T06:19:30.345Z,22.82
2018-08-06T06:22:00.331Z,22.96
2018-08-06T06:24:30.457Z,23.03
2018-08-06T06:27:00.620Z,23.16
2018-08-06T06:29:30.761Z,23.27
2018-08-06T06:32:00.716Z,23.38
2018-08-06T06:34:30.782Z,23.49
2018-08-06T06:37:00.850Z,23.62
2018-08-06T06:39:30.969Z,23.80
2018-08-06T06:42:00.976Z,23.90
2018-08-06T06:44:31.046Z,24.03
2018-08-06T06:47:01.004Z,24.16
2018-08-06T06:49:31.089Z,24.28
2018-08-06T06:52:01.049Z,24.44
2018-08-06T06:54:31.295Z,24.55
2018-08-06T06:57:01.262Z,24.72
2018-08-06T06:59:31.301Z,24.90
2018-08-06T07:02:01.328Z,25.09
2018-08-06T07:04:31.401Z,25.26
2018-08-06T07:07:01.458Z,25.36
2018-08-06T07:09:31.476Z,25.55
2018-08-06T07:12:01.560Z,25.68
2018-08-06T07:14:31.613Z,25.80
2018-08-06T07:17:01.537Z,25.98
2018-08-06T07:19:31.668Z,26.15
2018-08-06T07:22:01.770Z,26.26
2018-08-06T07:24:31.700Z,26.38
2018-08-06T07:27:01.741Z,26.50
2018-08-06T07:29:31.636Z,26.61
2018-08-06T07:32:01.637Z,26.74
2018-08-06T07:34:31.640Z,26.73
2018-08-06T07:37:01.735Z,26.82
2018-08-06T07:39:31.700Z,26.94
2018-08-06T07:42:01.725Z,27.01
2018-08-06T07:44:31.782Z,27.12
2018-08-06T07:47:01.519Z,27.23
2018-08-06T07:49:31.251Z,27.33
2018-08-06T07:52:00.869Z,27.49
2018-08-06T07:54:30.625Z,27.64
2018-08-06T07:57:00.289Z,27.74
2018-08-06T07:59:29.940Z,27.98
2018-08-06T08:01:59.569Z,28.11
2018-08-06T08:04:29.282Z,28.28
2018-08-06T08:06:58.993Z,28.45
2018-08-06T08:09:28.787Z,28.61
2018-08-06T08:11:58.543Z,28.86
2018-08-06T08:14:28.152Z,29.00
2018-08-06T08:16:57.823Z,29.06
2018-08-06T08:19:27.511Z,29.24
2018-08-06T08:21:57.164Z,29.47
2018-08-06T08:24:26.917Z,29.54
2018-08-06T08:26:56.617Z,29.66
2018-08-06T08:29:26.353Z,29.89
2018-08-06T08:31:56.056Z,30.05
2018-08-06T08:34:25.796Z,30.13
2018-08-06T08:36:55.481Z,30.29
2018-08-06T08:39:25.171Z,30.41
2018-08-06T08:41:54.855Z,30.58
2018-08-06T08:44:24.522Z,30.65
2018-08-06T08:46:54.197Z,30.69
2018-08-06T08:49:23.911Z,30.81
2018-08-06T08:51:53.589Z,30.87
2018-08-06T08:54:23.241Z,31.06
2018-08-06T08:56:52.928Z,31.32
2018-08-06T08:59:22.590Z,31.53
2018-08-06T09:01:52.264Z,31.59
2018-08-06T09:04:21.929Z,31.48
2018-08-06T09:06:51.591Z,31.60
2018-08-06T09:09:21.304Z,31.63
2018-08-06T09:11:50.997Z,31.77
2018-08-06T09:14:20.652Z,31.72
2018-08-06T09:16:50.349Z,31.77
2018-08-06T09:19:20.002Z,31.81
2018-08-06T09:21:49.654Z,31.82
2018-08-06T09:24:19.348Z,31.90
2018-08-06T09:26:49.076Z,31.95
2018-08-06T09:29:18.768Z,32.00
2018-08-06T09:31:48.517Z,32.09
2018-08-06T09:34:18.189Z,32.24
2018-08-06T09:36:47.902Z,32.28
2018-08-06T09:39:24.093Z,32.33
2018-08-06T09:41:53.857Z,32.41
2018-08-06T09:44:23.594Z,32.60
2018-08-06T09:46:53.334Z,32.76
2018-08-06T09:49:23.012Z,32.85
2018-08-06T09:51:52.859Z,32.93
2018-08-06T09:54:22.522Z,33.10
2018-08-06T09:56:52.228Z,33.23
2018-08-06T09:59:21.868Z,33.23
2018-08-06T10:01:58.805Z,33.13
2018-08-06T10:04:28.776Z,33.20
2018-08-06T10:06:58.428Z,33.18
2018-08-06T10:09:28.193Z,32.99
2018-08-06T10:11:57.905Z,33.15
2018-08-06T10:14:27.641Z,33.49
2018-08-06T10:16:57.330Z,33.73
2018-08-06T10:19:27.210Z,33.95
2018-08-06T10:21:56.889Z,34.16
2018-08-06T10:24:26.622Z,34.30
2018-08-06T10:26:56.693Z,34.44
2018-08-06T10:29:26.525Z,34.48
2018-08-06T10:31:56.237Z,34.64
2018-08-06T10:34:25.904Z,34.79
2018-08-06T10:36:55.855Z,34.82
2018-08-06T10:39:25.649Z,34.91
2018-08-06T10:41:55.362Z,35.02
2018-08-06T10:44:24.988Z,35.18
2018-08-06T10:46:54.700Z,35.37
2018-08-06T10:49:24.661Z,35.03
2018-08-06T10:51:54.697Z,35.27
2018-08-06T10:54:24.806Z,35.22
2018-08-06T10:56:54.927Z,35.34
2018-08-06T10:59:25.487Z,35.34
2018-08-06T11:01:55.609Z,35.20
2018-08-06T11:04:25.581Z,35.49
2018-08-06T11:06:55.624Z,35.65
2018-08-06T11:09:25.689Z,35.71
2018-08-06T11:11:55.855Z,35.80
2018-08-06T11:14:26.073Z,35.74
2018-08-06T11:16:56.006Z,35.86
2018-08-06T11:19:26.036Z,35.95
2018-08-06T11:21:56.125Z,36.19
2018-08-06T11:24:26.332Z,36.18
2018-08-06T11:26:56.472Z,36.24
2018-08-06T11:29:27.501Z,36.45
2018-08-06T11:31:57.536Z,36.72
2018-08-06T11:34:27.586Z,36.80
2018-08-06T11:36:57.469Z,36.89
2018-08-06T11:39:27.569Z,36.90
2018-08-06T11:41:57.602Z,37.09
2018-08-06T11:44:27.640Z,37.30
2018-08-06T11:46:57.734Z,37.35
2018-08-06T11:49:28.161Z,37.42
2018-08-06T11:51:58.271Z,37.50
2018-08-06T11:54:28.566Z,37.33
2018-08-06T11:56:58.653Z,37.39
2018-08-06T11:59:28.853Z,37.10
2018-08-06T12:01:58.878Z,37.37
2018-08-06T12:04:28.772Z,37.68
2018-08-06T12:06:58.952Z,37.55
2018-08-06T12:09:29.108Z,37.97
2018-08-06T12:11:59.303Z,38.81
2018-08-06T12:14:29.448Z,39.84
2018-08-06T12:16:59.468Z,41.15
2018-08-06T12:19:29.324Z,42.44
2018-08-06T12:21:59.314Z,43.68
2018-08-06T12:24:29.445Z,44.66
2018-08-06T12:26:59.613Z,45.37
2018-08-06T12:29:29.690Z,46.86
2018-08-06T12:31:59.844Z,49.11
2018-08-06T12:34:29.823Z,50.64
2018-08-06T12:36:59.904Z,52.21
2018-08-06T12:39:30.020Z,53.09
2018-08-06T12:42:00.083Z,54.42
2018-08-06T12:44:30.100Z,52.62
2018-08-06T12:46:59.764Z,51.71
2018-08-06T12:49:29.407Z,51.97
2018-08-06T12:51:59.058Z,51.12
2018-08-06T12:54:28.796Z,52.55
2018-08-06T12:56:58.768Z,54.28
2018-08-06T12:59:28.868Z,55.42
2018-08-06T13:01:58.898Z,56.01
2018-08-06T13:04:28.632Z,56.22
2018-08-06T13:06:58.336Z,55.16
2018-08-06T13:09:28.115Z,53.17
2018-08-06T13:11:58.248Z,52.13
2018-08-06T13:14:27.989Z,50.99
2018-08-06T13:16:57.674Z,49.42
2018-08-06T13:19:27.538Z,47.31
2018-08-06T13:21:57.405Z,46.52
2018-08-06T13:24:27.412Z,45.93
2018-08-06T13:26:57.036Z,45.21
2018-08-06T13:29:26.828Z,44.58
2018-08-06T13:31:56.840Z,43.43
2018-08-06T13:34:26.976Z,42.09
2018-08-06T13:36:56.868Z,41.62
2018-08-06T13:39:26.953Z,41.08
2018-08-06T13:41:57.029Z,41.14
2018-08-06T13:44:27.185Z,41.28
2018-08-06T13:46:57.276Z,40.91
2018-08-06T13:49:27.387Z,40.62
2018-08-06T13:51:57.429Z,40.39
2018-08-06T13:54:27.542Z,40.32
2018-08-06T13:56:57.699Z,39.21
2018-08-06T13:59:27.843Z,38.78
2018-08-06T14:01:57.889Z,38.22
2018-08-06T14:04:27.934Z,37.96
2018-08-06T14:06:58.031Z,37.59
2018-08-06T14:09:28.060Z,37.32
2018-08-06T14:11:58.164Z,36.76
2018-08-06T14:14:28.203Z,36.81
2018-08-06T14:16:58.418Z,37.15
2018-08-06T14:19:28.422Z,36.69
2018-08-06T14:21:58.441Z,37.08
2018-08-06T14:24:28.445Z,37.06
2018-08-06T14:26:58.376Z,37.04
2018-08-06T14:29:28.482Z,37.25
2018-08-06T14:31:58.575Z,37.49
2018-08-06T14:34:28.641Z,37.58
2018-08-06T14:36:58.699Z,37.92
2018-08-06T14:39:28.574Z,38.09
2018-08-06T14:41:58.492Z,38.34
2018-08-06T14:44:28.598Z,38.08
2018-08-06T14:46:58.521Z,38.16
2018-08-06T14:49:28.558Z,38.36
2018-08-06T14:51:58.758Z,38.64
2018-08-06T14:54:28.868Z,38.80
2018-08-06T14:56:58.908Z,38.89
2018-08-06T14:59:28.940Z,38.87
2018-08-06T15:01:59.092Z,38.86
2018-08-06T15:04:29.267Z,38.78
2018-08-06T15:06:59.232Z,38.22
2018-08-06T15:09:29.294Z,38.19
2018-08-06T15:11:59.310Z,38.01
2018-08-06T15:14:29.394Z,37.87
2018-08-06T15:16:59.446Z,37.57
2018-08-06T15:19:29.574Z,37.39
2018-08-06T15:21:59.481Z,37.00
2018-08-06T15:24:29.667Z,36.42
2018-08-06T15:26:59.730Z,36.47
2018-08-06T15:29:29.660Z,36.35
2018-08-06T15:31:59.780Z,36.40
2018-08-06T15:34:29.848Z,36.51
2018-08-06T15:36:59.892Z,36.62
2018-08-06T15:39:29.921Z,36.51
2018-08-06T15:41:59.925Z,36.34
2018-08-06T15:44:29.979Z,36.36
2018-08-06T15:47:00.067Z,36.42
2018-08-06T15:49:30.107Z,36.48
2018-08-06T15:52:00.274Z,36.33
2018-08-06T15:54:30.221Z,36.15
2018-08-06T15:57:00.159Z,36.04
2018-08-06T15:59:30.263Z,36.12
2018-08-06T16:02:00.285Z,35.97
2018-08-06T16:04:30.308Z,35.88
2018-08-06T16:07:00.481Z,36.03
2018-08-06T16:09:30.532Z,35.96
2018-08-06T16:12:00.621Z,35.83
2018-08-06T16:14:30.462Z,35.69
2018-08-06T16:17:00.551Z,35.61
2018-08-06T16:19:30.525Z,35.50
2018-08-06T16:22:00.524Z,35.71
2018-08-06T16:24:30.553Z,35.59
2018-08-06T16:27:00.568Z,35.27
2018-08-06T16:29:30.492Z,34.95
2018-08-06T16:32:00.590Z,34.93
2018-08-06T16:34:30.426Z,34.98
2018-08-06T16:37:00.428Z,34.91
2018-08-06T16:39:30.457Z,34.64
2018-08-06T16:42:00.628Z,34.61
2018-08-06T16:44:30.697Z,34.59
2018-08-06T16:47:00.761Z,34.56
2018-08-06T16:49:30.726Z,34.34
2018-08-06T16:52:00.752Z,34.27
2018-08-06T16:54:30.766Z,34.25
2018-08-06T16:57:00.793Z,34.11
2018-08-06T16:59:30.897Z,34.02
2018-08-06T17:02:00.876Z,33.90
2018-08-06T17:04:30.928Z,33.80
2018-08-06T17:07:01.189Z,33.72
2018-08-06T17:09:31.205Z,33.62
2018-08-06T17:12:01.295Z,33.49
2018-08-06T17:14:31.436Z,33.37
2018-08-06T17:17:01.598Z,33.24
2018-08-06T17:19:31.665Z,33.15
2018-08-06T17:22:01.670Z,32.98
2018-08-06T17:24:31.796Z,32.87
2018-08-06T17:27:01.930Z,32.76
2018-08-06T17:29:32.063Z,32.62
2018-08-06T17:32:02.074Z,32.52
2018-08-06T17:34:32.615Z,32.45
2018-08-06T17:37:02.782Z,32.24
2018-08-06T17:39:32.864Z,32.18
2018-08-06T17:42:03.323Z,32.09
2018-08-06T17:44:33.590Z,31.99
2018-08-06T17:47:03.736Z,31.88
2018-08-06T17:49:33.755Z,31.82
2018-08-06T17:52:04.005Z,31.71
2018-08-06T17:54:34.080Z,31.69
2018-08-06T17:57:04.222Z,31.53
2018-08-06T17:59:34.325Z,31.50
2018-08-06T18:02:04.331Z,31.44
2018-08-06T18:04:34.747Z,31.34
2018-08-06T18:07:05.324Z,31.29
2018-08-06T18:09:35.375Z,31.20
2018-08-06T18:12:05.323Z,31.16
2018-08-06T18:14:35.388Z,31.05
2018-08-06T18:17:05.037Z,30.92
2018-08-06T18:19:34.863Z,30.79
2018-08-06T18:22:04.892Z,30.69
2018-08-06T18:24:34.820Z,30.60
2018-08-06T18:27:05.186Z,30.52
2018-08-06T18:29:35.273Z,30.46
2018-08-06T18:32:05.421Z,30.37
2018-08-06T18:34:35.604Z,30.31
2018-08-06T18:37:06.020Z,30.23
2018-08-06T18:39:36.215Z,30.07
2018-08-06T18:42:06.149Z,30.00
2018-08-06T18:44:36.206Z,29.91
2018-08-06T18:47:06.913Z,29.85
2018-08-06T18:49:36.812Z,29.77
2018-08-06T18:52:06.979Z,29.67
2018-08-06T18:54:36.960Z,29.62
2018-08-06T18:57:07.296Z,29.53
2018-08-06T18:59:37.459Z,29.42
2018-08-06T19:02:07.630Z,29.37
2018-08-06T19:04:37.747Z,29.21
2018-08-06T19:07:08.062Z,28.99
2018-08-06T19:09:38.248Z,29.02
2018-08-06T19:12:13.193Z,28.78
2018-08-06T19:14:43.217Z,28.70
2018-08-06T19:17:13.277Z,28.58
2018-08-06T19:19:43.445Z,28.44
2018-08-06T19:22:13.727Z,28.28
2018-08-06T19:24:49.862Z,28.19
2018-08-06T19:27:20.169Z,28.18
2018-08-06T19:29:50.432Z,28.11
2018-08-06T19:32:20.496Z,27.98
2018-08-06T19:34:51.297Z,27.88
2018-08-06T19:37:26.734Z,27.78
2018-08-06T19:39:56.854Z,27.67
2018-08-06T19:42:30.890Z,27.63
2018-08-06T19:45:00.844Z,27.53
2018-08-06T19:47:30.922Z,27.46
2018-08-06T19:50:06.537Z,27.40
2018-08-06T19:52:36.768Z,27.42
2018-08-06T19:55:12.746Z,27.40
2018-08-06T19:57:43.207Z,27.34
2018-08-06T20:00:14.235Z,27.28
2018-08-06T20:02:46.179Z,27.21
2018-08-06T20:05:18.277Z,27.21
2018-08-06T20:07:48.508Z,27.24
2018-08-06T20:10:18.598Z,27.24
2018-08-06T20:12:48.594Z,27.20
2018-08-06T20:15:19.777Z,27.16
2018-08-06T20:17:50.756Z,27.16
2018-08-06T20:20:20.788Z,27.16
2018-08-06T20:22:50.705Z,27.12
2018-08-06T20:25:21.711Z,27.11
2018-08-06T20:27:52.353Z,27.09
2018-08-06T20:30:23.192Z,27.06
2018-08-06T20:32:54.838Z,27.03
2018-08-06T20:35:25.259Z,27.00
2018-08-06T20:37:55.311Z,26.97
2018-08-06T20:40:25.436Z,26.94
2018-08-06T20:42:55.441Z,26.92
2018-08-06T20:45:25.496Z,26.87
2018-08-06T20:47:56.992Z,26.83
2018-08-06T20:50:27.256Z,26.78
2018-08-06T20:52:59.387Z,26.72
2018-08-06T20:55:29.777Z,26.73
2018-08-06T20:57:59.962Z,26.72
2018-08-06T21:00:30.540Z,26.69
2018-08-06T21:03:00.704Z,26.65
2018-08-06T21:05:37.065Z,26.61
2018-08-06T21:08:07.676Z,26.56
2018-08-06T21:10:38.336Z,26.50
2018-08-06T21:13:08.516Z,26.63
2018-08-06T21:15:39.016Z,26.63
2018-08-06T21:18:09.021Z,26.73
2018-08-06T21:20:39.456Z,26.68
2018-08-06T21:23:09.789Z,26.70
2018-08-06T21:25:39.911Z,26.66
2018-08-06T21:28:09.937Z,26.60
2018-08-06T21:30:40.134Z,26.46
2018-08-06T21:33:10.138Z,26.43
2018-08-06T21:35:42.421Z,26.36
2018-08-06T21:38:14.752Z,26.36
2018-08-06T21:40:46.241Z,26.31
2018-08-06T21:43:17.084Z,26.25
2018-08-06T21:45:48.115Z,26.19
2018-08-06T21:48:20.546Z,26.09
2018-08-06T21:50:50.825Z,26.07
2018-08-06T21:53:20.998Z,25.96
2018-08-06T21:55:52.075Z,25.94
2018-08-06T21:58:22.249Z,25.88
2018-08-06T22:00:52.225Z,25.85
2018-08-06T22:03:22.239Z,25.77
2018-08-06T22:05:52.437Z,25.69
2018-08-06T22:08:22.376Z,25.63
2018-08-06T22:10:52.544Z,25.55
2018-08-06T22:13:22.402Z,25.49
2018-08-06T22:15:52.325Z,25.42
2018-08-06T22:18:22.514Z,25.37
2018-08-06T22:20:52.352Z,25.33
2018-08-06T22:23:22.161Z,25.29
2018-08-06T22:25:52.448Z,25.27
2018-08-06T22:28:22.423Z,25.18
2018-08-06T22:30:52.621Z,25.09
2018-08-06T22:33:23.128Z,25.05
2018-08-06T22:35:53.321Z,25.01
2018-08-06T22:38:23.361Z,24.97
2018-08-06T22:40:54.610Z,24.92
2018-08-06T22:43:24.886Z,24.85
2018-08-06T22:45:56.032Z,24.78
2018-08-06T22:48:34.201Z,24.76
2018-08-06T22:51:04.456Z,24.73
2018-08-06T22:53:34.543Z,24.70
2018-08-06T22:56:09.627Z,24.63
2018-08-06T22:58:40.102Z,24.61
2018-08-06T23:01:12.402Z,24.56
2018-08-06T23:03:45.175Z,24.55
2018-08-06T23:06:17.928Z,24.52
2018-08-06T23:08:50.915Z,24.46
2018-08-06T23:11:22.154Z,24.46
2018-08-06T23:13:54.001Z,24.51
2018-08-06T23:16:25.994Z,24.61
2018-08-06T23:18:56.242Z,24.59
2018-08-06T23:21:26.287Z,24.58
2018-08-06T23:23:56.307Z,24.57
2018-08-06T23:26:26.478Z,24.52
2018-08-06T23:28:56.543Z,24.46
2018-08-06T23:31:26.664Z,24.46
2018-08-06T23:33:57.049Z,24.43
2018-08-06T23:36:27.408Z,24.41
2018-08-06T23:38:57.491Z,24.40
2018-08-06T23:41:27.555Z,24.33
2018-08-06T23:43:57.731Z,24.27
2018-08-06T23:46:27.787Z,24.26
2018-08-06T23:48:58.087Z,24.21
2018-08-06T23:51:28.192Z,24.13
2018-08-06T23:53:58.257Z,24.05
2018-08-06T23:56:28.381Z,24.01
2018-08-06T23:58:58.509Z,23.98
